sensor_id;sensor_type;location;lat;lon;timestamp;pressure;altitude;pressure_sealevel;temperature;humidity
21779;BME280;11050;52.222;20.916;2022-07-29T00:01:23;100645.25;;;17.09;84.13
21779;BME280;11050;52.222;20.916;2022-07-29T00:03:49;100640.84;;;17.08;84.31
21779;BME280;11050;52.222;20.916;2022-07-29T00:06:15;100638.31;;;17.06;84.33
21779;BME280;11050;52.222;20.916;2022-07-29T00:08:41;100650.25;;;17.07;84.39
21779;BME280;11050;52.222;20.916;2022-07-29T00:11:06;100653.03;;;17.07;84.78
21779;BME280;11050;52.222;20.916;2022-07-29T00:13:32;100655.81;;;17.07;84.64
21779;BME280;11050;52.222;20.916;2022-07-29T00:15:58;100651.94;;;17.03;85.19
21779;BME280;11050;52.222;20.916;2022-07-29T00:18:24;100648.09;;;16.99;85.51
21779;BME280;11050;52.222;20.916;2022-07-29T00:20:50;100660.63;;;16.96;85.71
21779;BME280;11050;52.222;20.916;2022-07-29T00:23:16;100656.16;;;16.95;85.72
21779;BME280;11050;52.222;20.916;2022-07-29T00:25:41;100663.16;;;16.93;85.99
21779;BME280;11050;52.222;20.916;2022-07-29T00:28:07;100663.69;;;16.95;86.13
21779;BME280;11050;52.222;20.916;2022-07-29T00:30:33;100660.38;;;16.93;86.70
21779;BME280;11050;52.222;20.916;2022-07-29T00:32:59;100655.97;;;16.87;86.85
21779;BME280;11050;52.222;20.916;2022-07-29T00:35:25;100657.59;;;16.88;87.09
21779;BME280;11050;52.222;20.916;2022-07-29T00:38:11;100656.25;;;16.85;87.01
21779;BME280;11050;52.222;20.916;2022-07-29T00:40:37;100646.84;;;16.81;86.96
21779;BME280;11050;52.222;20.916;2022-07-29T00:43:03;100655.16;;;16.81;87.38
21779;BME280;11050;52.222;20.916;2022-07-29T00:45:29;100646.00;;;16.81;87.69
21779;BME280;11050;52.222;20.916;2022-07-29T00:47:55;100644.34;;;16.80;87.18
21779;BME280;11050;52.222;20.916;2022-07-29T00:50:22;100650.16;;;16.78;87.83
21779;BME280;11050;52.222;20.916;2022-07-29T00:52:49;100641.59;;;16.75;87.91
21779;BME280;11050;52.222;20.916;2022-07-29T00:55:16;100644.66;;;16.73;89.08
21779;BME280;11050;52.222;20.916;2022-07-29T00:57:44;100641.31;;;16.71;89.90
21779;BME280;11050;52.222;20.916;2022-07-29T01:00:15;100649.09;;;16.69;90.42
21779;BME280;11050;52.222;20.916;2022-07-29T01:02:43;100643.31;;;16.66;90.23
21779;BME280;11050;52.222;20.916;2022-07-29T01:05:11;100648.06;;;16.60;90.75
21779;BME280;11050;52.222;20.916;2022-07-29T01:07:39;100650.00;;;16.60;90.54
21779;BME280;11050;52.222;20.916;2022-07-29T01:10:08;100642.25;;;16.57;90.91
21779;BME280;11050;52.222;20.916;2022-07-29T01:12:37;100655.28;;;16.56;91.98
21779;BME280;11050;52.222;20.916;2022-07-29T01:15:06;100653.63;;;16.55;91.64
21779;BME280;11050;52.222;20.916;2022-07-29T01:18:07;100644.50;;;16.50;92.80
21779;BME280;11050;52.222;20.916;2022-07-29T01:26:59;100649.22;;;16.39;94.05
21779;BME280;11050;52.222;20.916;2022-07-29T01:29:39;100640.91;;;16.39;94.43
21779;BME280;11050;52.222;20.916;2022-07-29T01:32:20;100634.81;;;16.37;94.89
21779;BME280;11050;52.222;20.916;2022-07-29T01:34:51;100645.63;;;16.34;95.42
21779;BME280;11050;52.222;20.916;2022-07-29T01:37:28;100644.25;;;16.36;95.08
21779;BME280;11050;52.222;20.916;2022-07-29T01:39:57;100652.03;;;16.34;96.64
21779;BME280;11050;52.222;20.916;2022-07-29T01:42:29;100646.47;;;16.34;96.76
21779;BME280;11050;52.222;20.916;2022-07-29T01:45:06;100642.88;;;16.34;96.97
21779;BME280;11050;52.222;20.916;2022-07-29T01:47:46;100650.09;;;16.35;97.40
21779;BME280;11050;52.222;20.916;2022-07-29T01:50:17;100649.50;;;16.38;97.37
21779;BME280;11050;52.222;20.916;2022-07-29T01:53:02;100655.06;;;16.38;97.49
21779;BME280;11050;52.222;20.916;2022-07-29T01:55:40;100647.31;;;16.35;98.27
21779;BME280;11050;52.222;20.916;2022-07-29T01:58:10;100647.31;;;16.35;98.75
21779;BME280;11050;52.222;20.916;2022-07-29T02:00:39;100647.03;;;16.36;98.92
21779;BME280;11050;52.222;20.916;2022-07-29T02:03:11;100644.00;;;16.33;99.53
21779;BME280;11050;52.222;20.916;2022-07-29T02:05:41;100648.66;;;16.37;99.64
21779;BME280;11050;52.222;20.916;2022-07-29T02:08:09;100637.03;;;16.35;99.88
21779;BME280;11050;52.222;20.916;2022-07-29T02:10:38;100651.19;;;16.34;100.00
21779;BME280;11050;52.222;20.916;2022-07-29T02:13:07;100646.47;;;16.34;100.00
21779;BME280;11050;52.222;20.916;2022-07-29T02:15:36;100649.53;;;16.33;99.96
21779;BME280;11050;52.222;20.916;2022-07-29T02:18:15;100652.03;;;16.29;100.00
21779;BME280;11050;52.222;20.916;2022-07-29T02:20:50;100645.41;;;16.25;100.00
21779;BME280;11050;52.222;20.916;2022-07-29T02:23:21;100647.63;;;16.23;100.00
21779;BME280;11050;52.222;20.916;2022-07-29T02:25:55;100652.38;;;16.18;100.00
21779;BME280;11050;52.222;20.916;2022-07-29T02:28:28;100649.84;;;16.16;100.00
21779;BME280;11050;52.222;20.916;2022-07-29T02:31:00;100652.06;;;16.14;100.00
21779;BME280;11050;52.222;20.916;2022-07-29T02:33:27;100644.88;;;16.13;100.00
21779;BME280;11050;52.222;20.916;2022-07-29T02:35:59;100645.16;;;16.11;100.00
21779;BME280;11050;52.222;20.916;2022-07-29T02:38:28;100644.63;;;16.09;100.00
21779;BME280;11050;52.222;20.916;2022-07-29T02:41:22;100649.63;;;16.07;100.00
21779;BME280;11050;52.222;20.916;2022-07-29T02:43:54;100646.00;;;16.07;100.00
21779;BME280;11050;52.222;20.916;2022-07-29T02:46:30;100652.38;;;16.07;100.00
21779;BME280;11050;52.222;20.916;2022-07-29T02:49:18;100651.53;;;16.07;100.00
21779;BME280;11050;52.222;20.916;2022-07-29T02:54:54;100658.75;;;16.03;100.00
21779;BME280;11050;52.222;20.916;2022-07-29T02:57:34;100654.91;;;16.04;100.00
21779;BME280;11050;52.222;20.916;2022-07-29T03:00:07;100652.41;;;16.02;100.00
21779;BME280;11050;52.222;20.916;2022-07-29T03:02:38;100647.97;;;15.96;100.00
21779;BME280;11050;52.222;20.916;2022-07-29T03:05:09;100654.06;;;16.03;100.00
21779;BME280;11050;52.222;20.916;2022-07-29T03:07:37;100650.19;;;16.04;100.00
21779;BME280;11050;52.222;20.916;2022-07-29T03:10:07;100646.00;;;16.07;100.00
21779;BME280;11050;52.222;20.916;2022-07-29T03:12:35;100648.78;;;16.07;100.00
21779;BME280;11050;52.222;20.916;2022-07-29T03:15:02;100643.22;;;16.07;100.00
21779;BME280;11050;52.222;20.916;2022-07-29T03:17:29;100648.50;;;16.08;100.00
21779;BME280;11050;52.222;20.916;2022-07-29T03:19:58;100662.34;;;16.13;100.00
21779;BME280;11050;52.222;20.916;2022-07-29T03:22:25;100657.63;;;16.14;100.00
21779;BME280;11050;52.222;20.916;2022-07-29T03:24:50;100656.53;;;16.15;100.00
21779;BME280;11050;52.222;20.916;2022-07-29T03:27:16;100652.38;;;16.18;100.00
21779;BME280;11050;52.222;20.916;2022-07-29T03:29:42;100658.19;;;16.21;100.00
21779;BME280;11050;52.222;20.916;2022-07-29T03:32:08;100661.22;;;16.25;100.00
21779;BME280;11050;52.222;20.916;2022-07-29T03:34:36;100656.22;;;16.27;100.00
21779;BME280;11050;52.222;20.916;2022-07-29T03:37:02;100644.84;;;16.23;100.00
21779;BME280;11050;52.222;20.916;2022-07-29T03:39:36;100651.47;;;16.32;100.00
21779;BME280;11050;52.222;20.916;2022-07-29T03:42:06;100652.56;;;16.36;100.00
21779;BME280;11050;52.222;20.916;2022-07-29T03:44:36;100655.59;;;16.40;100.00
21779;BME280;11050;52.222;20.916;2022-07-29T03:47:06;100650.31;;;16.43;100.00
21779;BME280;11050;52.222;20.916;2022-07-29T03:49:36;100662.50;;;16.47;100.00
21779;BME280;11050;52.222;20.916;2022-07-29T03:52:04;100659.72;;;16.52;100.00
21779;BME280;11050;52.222;20.916;2022-07-29T03:54:30;100650.03;;;16.55;100.00
21779;BME280;11050;52.222;20.916;2022-07-29T03:57:01;100656.38;;;16.60;100.00
21779;BME280;11050;52.222;20.916;2022-07-29T03:59:30;100653.56;;;16.65;100.00
21779;BME280;11050;52.222;20.916;2022-07-29T04:01:57;100660.50;;;16.68;100.00
21779;BME280;11050;52.222;20.916;2022-07-29T04:04:24;100661.31;;;16.73;100.00
21779;BME280;11050;52.222;20.916;2022-07-29T04:06:50;100661.56;;;16.77;100.00
21779;BME280;11050;52.222;20.916;2022-07-29T04:09:16;100656.25;;;16.80;100.00
21779;BME280;11050;52.222;20.916;2022-07-29T04:11:42;100660.97;;;16.85;100.00
21779;BME280;11050;52.222;20.916;2022-07-29T04:14:08;100664.53;;;16.90;100.00
21779;BME280;11050;52.222;20.916;2022-07-29T04:16:34;100665.03;;;16.97;100.00
21779;BME280;11050;52.222;20.916;2022-07-29T04:18:59;100664.75;;;17.04;100.00
21779;BME280;11050;52.222;20.916;2022-07-29T04:21:25;100666.63;;;17.08;100.00
21779;BME280;11050;52.222;20.916;2022-07-29T04:23:51;100659.63;;;17.16;100.00
21779;BME280;11050;52.222;20.916;2022-07-29T04:26:18;100659.31;;;17.23;100.00
21779;BME280;11050;52.222;20.916;2022-07-29T04:28:44;100664.84;;;17.28;100.00
21779;BME280;11050;52.222;20.916;2022-07-29T04:31:11;100661.75;;;17.34;100.00
21779;BME280;11050;52.222;20.916;2022-07-29T04:33:37;100664.75;;;17.38;100.00
21779;BME280;11050;52.222;20.916;2022-07-29T04:36:04;100664.97;;;17.46;100.00
21779;BME280;11050;52.222;20.916;2022-07-29T04:38:29;100671.88;;;17.54;100.00
21779;BME280;11050;52.222;20.916;2022-07-29T04:40:55;100672.41;;;17.61;100.00
21779;BME280;11050;52.222;20.916;2022-07-29T04:43:21;100664.25;;;17.69;100.00
21779;BME280;11050;52.222;20.916;2022-07-29T04:45:47;100670.59;;;17.75;100.00
21779;BME280;11050;52.222;20.916;2022-07-29T04:48:12;100677.75;;;17.81;100.00
21779;BME280;11050;52.222;20.916;2022-07-29T04:50:39;100669.91;;;17.88;100.00
21779;BME280;11050;52.222;20.916;2022-07-29T04:53:06;100680.09;;;17.97;98.95
21779;BME280;11050;52.222;20.916;2022-07-29T04:55:33;100678.09;;;18.03;99.41
21779;BME280;11050;52.222;20.916;2022-07-29T04:57:59;100688.56;;;18.11;97.91
21779;BME280;11050;52.222;20.916;2022-07-29T05:00:25;100683.50;;;18.18;97.06
21779;BME280;11050;52.222;20.916;2022-07-29T05:02:51;100674.56;;;18.21;96.67
21779;BME280;11050;52.222;20.916;2022-07-29T05:05:17;100676.16;;;18.27;96.06
21779;BME280;11050;52.222;20.916;2022-07-29T05:07:43;100672.19;;;18.33;95.21
21779;BME280;11050;52.222;20.916;2022-07-29T05:10:09;100676.00;;;18.42;95.17
21779;BME280;11050;52.222;20.916;2022-07-29T05:12:35;100684.25;;;18.52;94.34
21779;BME280;11050;52.222;20.916;2022-07-29T05:15:01;100691.63;;;18.62;93.06
21779;BME280;11050;52.222;20.916;2022-07-29T05:17:26;100692.94;;;18.69;92.08
21779;BME280;11050;52.222;20.916;2022-07-29T05:19:52;100695.59;;;18.79;91.81
21779;BME280;11050;52.222;20.916;2022-07-29T05:22:19;100701.00;;;18.89;90.53
21779;BME280;11050;52.222;20.916;2022-07-29T05:24:46;100710.88;;;19.01;89.68
21779;BME280;11050;52.222;20.916;2022-07-29T05:27:12;100697.44;;;19.08;88.75
21779;BME280;11050;52.222;20.916;2022-07-29T05:29:38;100700.34;;;19.16;87.53
21779;BME280;11050;52.222;20.916;2022-07-29T05:32:04;100694.41;;;19.23;85.99
21779;BME280;11050;52.222;20.916;2022-07-29T05:34:31;100695.47;;;19.27;85.42
21779;BME280;11050;52.222;20.916;2022-07-29T05:36:57;100696.50;;;19.31;84.43
21779;BME280;11050;52.222;20.916;2022-07-29T05:39:23;100697.31;;;19.36;84.15
21779;BME280;11050;52.222;20.916;2022-07-29T05:41:49;100704.66;;;19.46;83.68
21779;BME280;11050;52.222;20.916;2022-07-29T05:44:15;100699.03;;;19.51;82.93
21779;BME280;11050;52.222;20.916;2022-07-29T05:46:41;100696.25;;;19.51;82.58
21779;BME280;11050;52.222;20.916;2022-07-29T05:49:07;100697.81;;;19.57;82.87
21779;BME280;11050;52.222;20.916;2022-07-29T05:51:34;100689.06;;;19.63;82.13
21779;BME280;11050;52.222;20.916;2022-07-29T05:54:00;100683.38;;;19.68;81.40
21779;BME280;11050;52.222;20.916;2022-07-29T05:56:26;100687.22;;;19.72;80.38
21779;BME280;11050;52.222;20.916;2022-07-29T05:58:52;100688.47;;;19.80;79.84
21779;BME280;11050;52.222;20.916;2022-07-29T06:01:17;100693.88;;;19.90;79.56
21779;BME280;11050;52.222;20.916;2022-07-29T06:03:44;100691.53;;;19.97;78.85
21779;BME280;11050;52.222;20.916;2022-07-29T06:06:10;100688.03;;;20.05;78.62
21779;BME280;11050;52.222;20.916;2022-07-29T06:08:36;100680.00;;;20.17;77.58
21779;BME280;11050;52.222;20.916;2022-07-29T06:11:03;100684.59;;;20.27;77.18
21779;BME280;11050;52.222;20.916;2022-07-29T06:13:30;100689.97;;;20.37;76.38
21779;BME280;11050;52.222;20.916;2022-07-29T06:15:56;100677.75;;;20.46;75.95
21779;BME280;11050;52.222;20.916;2022-07-29T06:18:22;100674.78;;;20.56;74.75
21779;BME280;11050;52.222;20.916;2022-07-29T06:20:50;100679.00;;;20.67;74.46
21779;BME280;11050;52.222;20.916;2022-07-29T06:23:18;100681.78;;;20.81;73.84
21779;BME280;11050;52.222;20.916;2022-07-29T06:25:44;100679.50;;;20.97;72.58
21779;BME280;11050;52.222;20.916;2022-07-29T06:28:10;100680.75;;;21.04;72.06
21779;BME280;11050;52.222;20.916;2022-07-29T06:30:36;100683.50;;;21.18;70.91
21779;BME280;11050;52.222;20.916;2022-07-29T06:33:02;100679.31;;;21.29;70.20
21779;BME280;11050;52.222;20.916;2022-07-29T06:35:28;100688.63;;;21.38;70.20
21779;BME280;11050;52.222;20.916;2022-07-29T06:37:54;100687.09;;;21.54;69.59
21779;BME280;11050;52.222;20.916;2022-07-29T06:40:20;100689.50;;;21.69;68.72
21779;BME280;11050;52.222;20.916;2022-07-29T06:43:05;100689.06;;;21.76;67.69
21779;BME280;11050;52.222;20.916;2022-07-29T06:45:34;100693.91;;;21.84;67.30
21779;BME280;11050;52.222;20.916;2022-07-29T06:48:00;100692.31;;;21.91;66.56
21779;BME280;11050;52.222;20.916;2022-07-29T06:50:26;100686.59;;;21.96;66.44
21779;BME280;11050;52.222;20.916;2022-07-29T06:52:52;100703.13;;;22.06;65.34
21779;BME280;11050;52.222;20.916;2022-07-29T06:55:17;100698.41;;;22.15;64.58
21779;BME280;11050;52.222;20.916;2022-07-29T06:57:45;100700.91;;;22.25;64.18
21779;BME280;11050;52.222;20.916;2022-07-29T07:00:12;100705.25;;;22.31;62.96
21779;BME280;11050;52.222;20.916;2022-07-29T07:02:38;100702.50;;;22.40;63.72
21779;BME280;11050;52.222;20.916;2022-07-29T07:05:05;100694.78;;;22.45;63.05
21779;BME280;11050;52.222;20.916;2022-07-29T07:07:31;100688.06;;;22.55;62.52
21779;BME280;11050;52.222;20.916;2022-07-29T07:09:57;100698.47;;;22.63;61.52
21779;BME280;11050;52.222;20.916;2022-07-29T07:12:23;100695.22;;;22.78;61.64
21779;BME280;11050;52.222;20.916;2022-07-29T07:14:49;100691.97;;;22.85;61.03
21779;BME280;11050;52.222;20.916;2022-07-29T07:17:14;100694.63;;;22.98;60.93
21779;BME280;11050;52.222;20.916;2022-07-29T07:19:40;100694.13;;;23.05;60.61
21779;BME280;11050;52.222;20.916;2022-07-29T07:22:06;100687.91;;;23.16;60.53
21779;BME280;11050;52.222;20.916;2022-07-29T07:24:32;100691.38;;;23.22;58.86
21779;BME280;11050;52.222;20.916;2022-07-29T07:26:57;100695.34;;;23.21;59.17
21779;BME280;11050;52.222;20.916;2022-07-29T07:29:23;100693.88;;;23.40;58.65
21779;BME280;11050;52.222;20.916;2022-07-29T07:31:49;100688.94;;;23.55;58.05
21779;BME280;11050;52.222;20.916;2022-07-29T07:34:15;100691.25;;;23.70;57.46
21779;BME280;11050;52.222;20.916;2022-07-29T07:36:41;100694.50;;;23.80;55.60
21779;BME280;11050;52.222;20.916;2022-07-29T07:39:06;100689.22;;;23.96;55.50
21779;BME280;11050;52.222;20.916;2022-07-29T07:41:32;100696.31;;;24.10;54.90
21779;BME280;11050;52.222;20.916;2022-07-29T07:43:58;100693.16;;;24.20;54.35
21779;BME280;11050;52.222;20.916;2022-07-29T07:46:24;100696.94;;;24.24;53.51
21779;BME280;11050;52.222;20.916;2022-07-29T07:48:50;100697.72;;;24.33;52.14
21779;BME280;11050;52.222;20.916;2022-07-29T07:51:18;100700.00;;;24.40;52.51
21779;BME280;11050;52.222;20.916;2022-07-29T07:53:43;100702.78;;;24.49;53.83
21779;BME280;11050;52.222;20.916;2022-07-29T07:56:10;100696.94;;;24.62;53.26
21779;BME280;11050;52.222;20.916;2022-07-29T07:58:36;100695.13;;;24.66;52.45
21779;BME280;11050;52.222;20.916;2022-07-29T08:01:02;100702.53;;;24.71;52.13
21779;BME280;11050;52.222;20.916;2022-07-29T08:03:28;100699.38;;;24.81;51.81
21779;BME280;11050;52.222;20.916;2022-07-29T08:05:54;100700.41;;;24.97;50.95
21779;BME280;11050;52.222;20.916;2022-07-29T08:08:19;100701.50;;;25.13;51.24
21779;BME280;11050;52.222;20.916;2022-07-29T08:10:46;100712.94;;;25.28;49.11
21779;BME280;11050;52.222;20.916;2022-07-29T08:13:20;100699.16;;;25.35;49.41
21779;BME280;11050;52.222;20.916;2022-07-29T08:15:47;100697.84;;;25.42;49.10
21779;BME280;11050;52.222;20.916;2022-07-29T08:18:13;100701.53;;;25.54;48.81
21779;BME280;11050;52.222;20.916;2022-07-29T08:20:40;100691.09;;;25.55;47.82
21779;BME280;11050;52.222;20.916;2022-07-29T08:23:07;100689.09;;;25.55;49.39
21779;BME280;11050;52.222;20.916;2022-07-29T08:25:37;100690.47;;;25.70;48.94
21779;BME280;11050;52.222;20.916;2022-07-29T08:28:04;100686.13;;;25.72;48.04
21779;BME280;11050;52.222;20.916;2022-07-29T08:30:30;100690.31;;;25.87;48.15
21779;BME280;11050;52.222;20.916;2022-07-29T08:32:58;100699.69;;;26.11;46.74
21779;BME280;11050;52.222;20.916;2022-07-29T08:35:24;100695.97;;;26.32;44.63
21779;BME280;11050;52.222;20.916;2022-07-29T08:37:52;100703.03;;;26.38;46.04
21779;BME280;11050;52.222;20.916;2022-07-29T08:40:20;100695.19;;;26.67;45.03
21779;BME280;11050;52.222;20.916;2022-07-29T08:42:46;100701.69;;;26.92;44.19
21779;BME280;11050;52.222;20.916;2022-07-29T08:45:12;100700.22;;;27.22;43.72
21779;BME280;11050;52.222;20.916;2022-07-29T08:47:39;100707.19;;;27.64;42.63
21779;BME280;11050;52.222;20.916;2022-07-29T08:50:09;100705.00;;;27.85;42.90
21779;BME280;11050;52.222;20.916;2022-07-29T08:52:38;100697.81;;;28.16;41.64
21779;BME280;11050;52.222;20.916;2022-07-29T08:55:07;100703.59;;;28.35;40.35
21779;BME280;11050;52.222;20.916;2022-07-29T08:57:34;100703.97;;;28.49;40.13
21779;BME280;11050;52.222;20.916;2022-07-29T09:00:04;100700.69;;;28.47;40.15
21779;BME280;11050;52.222;20.916;2022-07-29T09:02:39;100697.94;;;28.50;40.00
21779;BME280;11050;52.222;20.916;2022-07-29T09:05:06;100688.47;;;28.74;39.50
21779;BME280;11050;52.222;20.916;2022-07-29T09:07:32;100692.09;;;29.06;38.79
21779;BME280;11050;52.222;20.916;2022-07-29T09:10:00;100686.94;;;29.27;38.24
21779;BME280;11050;52.222;20.916;2022-07-29T09:12:26;100689.78;;;29.27;37.29
21779;BME280;11050;52.222;20.916;2022-07-29T09:14:52;100688.00;;;29.38;37.16
21779;BME280;11050;52.222;20.916;2022-07-29T09:17:40;100694.78;;;29.33;36.20
21779;BME280;11050;52.222;20.916;2022-07-29T09:20:33;100686.91;;;28.92;37.64
21779;BME280;11050;52.222;20.916;2022-07-29T09:23:18;100696.72;;;28.79;38.71
21779;BME280;11050;52.222;20.916;2022-07-29T09:25:43;100697.88;;;28.93;39.27
21779;BME280;11050;52.222;20.916;2022-07-29T09:28:15;100696.94;;;29.05;38.85
21779;BME280;11050;52.222;20.916;2022-07-29T09:33:18;100687.56;;;28.85;38.74
21779;BME280;11050;52.222;20.916;2022-07-29T09:35:44;100682.13;;;29.12;39.07
21779;BME280;11050;52.222;20.916;2022-07-29T09:38:13;100677.00;;;29.17;37.41
21779;BME280;11050;52.222;20.916;2022-07-29T09:40:40;100677.66;;;29.11;38.35
21779;BME280;11050;52.222;20.916;2022-07-29T09:43:13;100682.91;;;29.43;38.01
21779;BME280;11050;52.222;20.916;2022-07-29T09:45:39;100680.34;;;29.38;36.71
21779;BME280;11050;52.222;20.916;2022-07-29T09:48:17;100679.19;;;29.24;36.39
21779;BME280;11050;52.222;20.916;2022-07-29T09:50:45;100663.97;;;29.13;35.32
21779;BME280;11050;52.222;20.916;2022-07-29T09:55:55;100675.41;;;28.85;36.96
21779;BME280;11050;52.222;20.916;2022-07-29T09:58:22;100675.31;;;28.81;37.46
21779;BME280;11050;52.222;20.916;2022-07-29T10:00:50;100673.97;;;28.75;36.79
21779;BME280;11050;52.222;20.916;2022-07-29T10:03:18;100669.66;;;28.81;37.54
21779;BME280;11050;52.222;20.916;2022-07-29T10:05:45;100670.66;;;28.89;36.74
21779;BME280;11050;52.222;20.916;2022-07-29T10:08:12;100667.56;;;28.94;36.96
21779;BME280;11050;52.222;20.916;2022-07-29T10:10:42;100667.06;;;29.08;36.25
21779;BME280;11050;52.222;20.916;2022-07-29T10:13:13;100662.66;;;29.26;36.27
21779;BME280;11050;52.222;20.916;2022-07-29T10:15:43;100665.66;;;29.33;35.07
21779;BME280;11050;52.222;20.916;2022-07-29T10:18:12;100659.34;;;29.39;35.42
21779;BME280;11050;52.222;20.916;2022-07-29T10:20:39;100649.69;;;29.44;34.60
21779;BME280;11050;52.222;20.916;2022-07-29T10:23:06;100658.09;;;29.75;34.90
21779;BME280;11050;52.222;20.916;2022-07-29T10:25:32;100652.72;;;30.12;34.51
21779;BME280;11050;52.222;20.916;2022-07-29T10:27:58;100655.44;;;30.46;33.96
21779;BME280;11050;52.222;20.916;2022-07-29T10:30:26;100662.34;;;30.71;33.80
21779;BME280;11050;52.222;20.916;2022-07-29T10:33:43;100653.47;;;30.99;32.94
21779;BME280;11050;52.222;20.916;2022-07-29T10:39:54;100652.75;;;31.06;31.98
21779;BME280;11050;52.222;20.916;2022-07-29T10:42:28;100649.88;;;30.79;31.68
21779;BME280;11050;52.222;20.916;2022-07-29T10:44:55;100649.09;;;30.79;31.37
21779;BME280;11050;52.222;20.916;2022-07-29T10:47:23;100651.56;;;31.07;30.90
21779;BME280;11050;52.222;20.916;2022-07-29T10:50:01;100651.47;;;31.29;30.79
21779;BME280;11050;52.222;20.916;2022-07-29T10:55:32;100643.81;;;31.93;29.43
21779;BME280;11050;52.222;20.916;2022-07-29T10:58:22;100642.69;;;32.01;30.21
21779;BME280;11050;52.222;20.916;2022-07-29T11:00:53;100644.66;;;31.97;29.76
21779;BME280;11050;52.222;20.916;2022-07-29T11:03:48;100642.75;;;31.75;28.13
21779;BME280;11050;52.222;20.916;2022-07-29T11:06:15;100638.63;;;31.68;29.10
21779;BME280;11050;52.222;20.916;2022-07-29T11:08:41;100637.13;;;31.78;29.37
21779;BME280;11050;52.222;20.916;2022-07-29T11:13:50;100631.53;;;31.89;28.81
21779;BME280;11050;52.222;20.916;2022-07-29T11:16:19;100636.53;;;31.62;28.41
21779;BME280;11050;52.222;20.916;2022-07-29T11:21:39;100634.88;;;31.61;29.96
21779;BME280;11050;52.222;20.916;2022-07-29T11:24:13;100622.25;;;31.58;29.96
21779;BME280;11050;52.222;20.916;2022-07-29T11:26:40;100628.13;;;31.39;30.17
21779;BME280;11050;52.222;20.916;2022-07-29T11:29:19;100620.16;;;31.22;30.36
21779;BME280;11050;52.222;20.916;2022-07-29T11:31:50;100630.59;;;31.15;30.25
21779;BME280;11050;52.222;20.916;2022-07-29T11:34:29;100626.25;;;31.24;30.22
21779;BME280;11050;52.222;20.916;2022-07-29T11:40:07;100616.88;;;31.50;29.93
21779;BME280;11050;52.222;20.916;2022-07-29T11:45:05;100619.91;;;31.64;30.23
21779;BME280;11050;52.222;20.916;2022-07-29T11:47:34;100614.63;;;31.66;30.17
21779;BME280;11050;52.222;20.916;2022-07-29T11:50:02;100605.09;;;32.21;29.13
21779;BME280;11050;52.222;20.916;2022-07-29T11:52:37;100612.75;;;33.15;28.18
21779;BME280;11050;52.222;20.916;2022-07-29T11:55:11;100613.59;;;34.23;26.67
21779;BME280;11050;52.222;20.916;2022-07-29T11:57:50;100619.31;;;34.93;25.29
21779;BME280;11050;52.222;20.916;2022-07-29T12:00:39;100618.59;;;35.83;25.13
21779;BME280;11050;52.222;20.916;2022-07-29T12:03:09;100617.78;;;36.51;23.44
21779;BME280;11050;52.222;20.916;2022-07-29T12:05:42;100610.13;;;36.85;22.46
21779;BME280;11050;52.222;20.916;2022-07-29T12:08:16;100608.19;;;36.17;22.62
21779;BME280;11050;52.222;20.916;2022-07-29T12:10:46;100611.38;;;36.33;24.19
21779;BME280;11050;52.222;20.916;2022-07-29T12:13:15;100614.16;;;37.29;22.27
21779;BME280;11050;52.222;20.916;2022-07-29T12:15:41;100612.94;;;38.24;21.00
21779;BME280;11050;52.222;20.916;2022-07-29T12:18:17;100612.72;;;39.07;19.51
21779;BME280;11050;52.222;20.916;2022-07-29T12:20:44;100612.44;;;38.78;19.79
21779;BME280;11050;52.222;20.916;2022-07-29T12:23:11;100604.47;;;38.63;20.35
21779;BME280;11050;52.222;20.916;2022-07-29T12:25:43;100611.47;;;37.82;20.72
21779;BME280;11050;52.222;20.916;2022-07-29T12:28:13;100603.09;;;37.31;21.60
21779;BME280;11050;52.222;20.916;2022-07-29T12:30:48;100605.34;;;36.68;22.25
21779;BME280;11050;52.222;20.916;2022-07-29T12:33:18;100607.56;;;35.92;22.73
21779;BME280;11050;52.222;20.916;2022-07-29T12:35:51;100594.38;;;35.15;23.88
21779;BME280;11050;52.222;20.916;2022-07-29T12:38:18;100581.38;;;34.33;24.33
21779;BME280;11050;52.222;20.916;2022-07-29T12:40:46;100573.94;;;33.69;24.80
21779;BME280;11050;52.222;20.916;2022-07-29T12:43:26;100578.22;;;33.20;25.95
21779;BME280;11050;52.222;20.916;2022-07-29T12:45:55;100582.50;;;32.93;26.88
21779;BME280;11050;52.222;20.916;2022-07-29T12:48:42;100568.22;;;32.83;26.74
21779;BME280;11050;52.222;20.916;2022-07-29T12:51:10;100581.59;;;32.75;27.34
21779;BME280;11050;52.222;20.916;2022-07-29T12:53:39;100584.06;;;32.84;27.30
21779;BME280;11050;52.222;20.916;2022-07-29T12:56:06;100584.13;;;32.94;27.22
21779;BME280;11050;52.222;20.916;2022-07-29T12:58:41;100574.72;;;32.87;27.37
21779;BME280;11050;52.222;20.916;2022-07-29T13:01:14;100582.63;;;33.07;27.15
21779;BME280;11050;52.222;20.916;2022-07-29T13:03:52;100585.69;;;33.53;26.64
21779;BME280;11050;52.222;20.916;2022-07-29T13:09:11;100574.28;;;33.57;26.14
21779;BME280;11050;52.222;20.916;2022-07-29T13:11:42;100566.47;;;33.39;27.20
21779;BME280;11050;52.222;20.916;2022-07-29T13:17:20;100564.81;;;33.31;27.93
21779;BME280;11050;52.222;20.916;2022-07-29T13:20:05;100553.53;;;32.81;27.60
21779;BME280;11050;52.222;20.916;2022-07-29T13:22:31;100554.59;;;32.58;27.04
21779;BME280;11050;52.222;20.916;2022-07-29T13:25:01;100556.53;;;33.02;26.00
21779;BME280;11050;52.222;20.916;2022-07-29T13:27:31;100553.66;;;34.19;26.21